Time;durP1;ratioP1;P1;durP2;ratioP2;P2;SDS_P1;SDS_P2;PMS_P1;PMS_P2;Temp;Humidity;BMP_temperature;BMP_pressure;BME280_temperature;BME280_humidity;BME280_pressure;Samples;Min_cycle;Max_cycle;Signal;HPM_P1;HPM_P2
2021/09/11 00:01:49;;;;;;;10.60;9.80;;;26.90;55.00;;;;;;5010216;28;20217;-45
2021/09/11 00:04:15;;;;;;;10.73;9.83;;;26.80;55.00;;;;;;5008781;28;20520;-45
2021/09/11 00:06:41;;;;;;;9.67;8.90;;;26.90;54.90;;;;;;5010667;28;20601;-50
2021/09/11 00:09:06;;;;;;;11.93;10.70;;;26.90;55.00;;;;;;4998944;28;20190;-46
2021/09/11 00:11:32;;;;;;;11.37;10.27;;;26.80;54.90;;;;;;5005060;28;20197;-46
2021/09/11 00:13:58;;;;;;;10.63;9.70;;;26.90;54.80;;;;;;5004396;28;20844;-49
2021/09/11 00:16:23;;;;;;;10.47;9.50;;;27.00;54.70;;;;;;5010848;28;20229;-46
2021/09/11 00:18:49;;;;;;;10.23;9.43;;;27.00;54.50;;;;;;5007919;28;20201;-45
2021/09/11 00:21:14;;;;;;;10.63;9.50;;;26.90;54.50;;;;;;5009125;28;20189;-47
2021/09/11 00:23:41;;;;;;;10.97;9.90;;;26.90;54.50;;;;;;5006909;28;20191;-45
2021/09/11 00:26:07;;;;;;;10.70;9.70;;;26.80;54.80;;;;;;5007837;28;20879;-46
2021/09/11 00:28:33;;;;;;;10.93;10.13;;;26.70;55.40;;;;;;5008207;28;20440;-45
2021/09/11 00:30:59;;;;;;;11.37;10.47;;;26.60;55.50;;;;;;5009228;28;20194;-46
2021/09/11 00:33:26;;;;;;;10.17;9.37;;;26.60;55.40;;;;;;4998139;28;20492;-45
2021/09/11 00:35:51;;;;;;;10.23;9.40;;;26.60;55.30;;;;;;5008163;28;20332;-46
2021/09/11 00:38:17;;;;;;;10.17;9.37;;;26.70;55.30;;;;;;5007279;28;21055;-47
2021/09/11 00:40:42;;;;;;;10.27;9.47;;;26.70;55.20;;;;;;5004968;28;20198;-47
2021/09/11 00:43:08;;;;;;;10.40;9.60;;;26.70;55.20;;;;;;5006950;28;20186;-45
2021/09/11 00:45:34;;;;;;;10.03;9.13;;;26.70;55.10;;;;;;5007142;28;20198;-46
2021/09/11 00:47:59;;;;;;;9.80;8.80;;;26.70;55.10;;;;;;5012378;28;20186;-46
2021/09/11 00:50:25;;;;;;;11.30;10.30;;;26.70;55.30;;;;;;5014793;28;20546;-45
2021/09/11 00:52:51;;;;;;;11.07;10.17;;;26.70;55.30;;;;;;5007388;28;20230;-46
2021/09/11 00:55:17;;;;;;;9.57;8.77;;;26.60;55.40;;;;;;5009257;28;20290;-46
2021/09/11 00:57:44;;;;;;;10.73;9.73;;;26.60;55.40;;;;;;5014201;28;20468;-47
2021/09/11 01:00:13;;;;;;;12.77;9.70;;;26.60;55.40;;;;;;5011820;28;20868;-48
2021/09/11 01:02:39;;;;;;;10.97;9.57;;;26.60;55.30;;;;;;5014271;28;20928;-47
2021/09/11 01:05:09;;;;;;;10.40;9.50;;;26.70;55.20;;;;;;5014534;28;20467;-46
2021/09/11 01:07:41;;;;;;;10.63;9.73;;;26.70;55.00;;;;;;5012178;28;20224;-46
2021/09/11 01:10:07;;;;;;;10.33;9.37;;;26.80;54.80;;;;;;5012860;28;20437;-46
2021/09/11 01:12:33;;;;;;;10.40;9.40;;;26.80;54.80;;;;;;5013460;28;20440;-47
2021/09/11 01:15:08;;;;;;;9.90;9.10;;;26.80;54.90;;;;;;5013987;28;20475;-46
2021/09/11 01:17:34;;;;;;;10.90;9.50;;;26.80;54.80;;;;;;4996998;28;20440;-46
2021/09/11 01:20:00;;;;;;;10.03;9.00;;;26.80;54.80;;;;;;5005992;28;20444;-46
2021/09/11 01:22:25;;;;;;;9.80;8.90;;;26.80;54.80;;;;;;5009629;28;20437;-47
2021/09/11 01:25:09;;;;;;;10.10;9.17;;;26.80;54.70;;;;;;5013679;28;20570;-46
2021/09/11 01:27:35;;;;;;;9.10;8.30;;;26.80;54.70;;;;;;5011371;28;20213;-46
2021/09/11 01:30:07;;;;;;;9.13;8.43;;;26.80;54.70;;;;;;5003670;28;20445;-48
2021/09/11 01:32:33;;;;;;;10.20;8.50;;;26.70;54.50;;;;;;5007489;28;20194;-46
2021/09/11 01:34:59;;;;;;;9.73;9.03;;;26.70;54.90;;;;;;5009065;28;20437;-48
2021/09/11 01:37:25;;;;;;;10.07;9.13;;;26.70;54.70;;;;;;5009012;28;20433;-46
2021/09/11 01:39:51;;;;;;;8.97;8.37;;;26.70;54.70;;;;;;5004482;28;20847;-46
2021/09/11 01:42:18;;;;;;;9.40;8.70;;;26.60;54.90;;;;;;5002331;28;20198;-50
2021/09/11 01:44:48;;;;;;;9.47;8.60;;;26.70;54.80;;;;;;5011754;28;20198;-45
2021/09/11 01:47:14;;;;;;;9.63;8.87;;;26.70;54.60;;;;;;5011673;28;20902;-45
2021/09/11 01:49:41;;;;;;;10.37;9.23;;;26.60;54.70;;;;;;5009783;28;20813;-47
2021/09/11 01:52:07;;;;;;;9.83;9.03;;;26.60;54.70;;;;;;5013060;28;20429;-48
2021/09/11 01:54:33;;;;;;;10.40;9.50;;;26.70;54.80;;;;;;4997210;28;20508;-47
2021/09/11 01:56:59;;;;;;;9.53;8.73;;;26.60;54.70;;;;;;5005353;28;20441;-49
2021/09/11 01:59:24;;;;;;;9.17;8.23;;;26.60;54.60;;;;;;5012444;28;20276;-48
2021/09/11 02:01:51;;;;;;;10.43;9.57;;;26.60;54.70;;;;;;5005804;28;20190;-46
2021/09/11 02:04:16;;;;;;;8.70;8.00;;;26.70;54.40;;;;;;5009651;28;20217;-47
2021/09/11 02:06:42;;;;;;;9.30;8.50;;;26.70;54.40;;;;;;5012973;28;20445;-46
2021/09/11 02:09:08;;;;;;;9.57;8.73;;;26.60;54.50;;;;;;5012108;28;20190;-48
2021/09/11 02:11:33;;;;;;;10.57;9.30;;;26.70;54.40;;;;;;5010253;28;20206;-48
2021/09/11 02:13:59;;;;;;;9.13;8.37;;;26.70;54.30;;;;;;5009754;28;20317;-48
2021/09/11 02:16:24;;;;;;;9.23;8.43;;;26.70;54.10;;;;;;5004293;28;20534;-48
2021/09/11 02:18:50;;;;;;;12.13;8.90;;;26.80;53.80;;;;;;5012264;28;20583;-48
2021/09/11 02:21:15;;;;;;;9.33;8.57;;;26.80;53.90;;;;;;5010258;28;20201;-46
2021/09/11 02:23:41;;;;;;;8.80;8.10;;;26.80;53.90;;;;;;5012438;28;20196;-45
2021/09/11 02:26:07;;;;;;;9.10;8.30;;;26.80;54.00;;;;;;5006905;28;20198;-47
2021/09/11 02:28:32;;;;;;;9.43;8.60;;;26.70;54.10;;;;;;5009119;28;20202;-46
2021/09/11 02:30:58;;;;;;;8.90;8.27;;;26.80;54.10;;;;;;5004605;28;20265;-49
2021/09/11 02:33:23;;;;;;;9.00;8.40;;;26.70;54.10;;;;;;5010475;28;20237;-47
2021/09/11 02:35:49;;;;;;;9.40;8.63;;;26.70;54.00;;;;;;5008030;28;20194;-46
2021/09/11 02:38:15;;;;;;;9.80;9.00;;;26.70;54.10;;;;;;5010694;28;20205;-47
2021/09/11 02:40:40;;;;;;;9.60;8.70;;;26.60;54.40;;;;;;5009444;28;20276;-46
2021/09/11 02:43:06;;;;;;;9.20;8.50;;;26.50;54.50;;;;;;5010848;28;20194;-47
2021/09/11 02:45:31;;;;;;;7.53;7.03;;;26.50;54.60;;;;;;5008436;28;20240;-47
2021/09/11 02:47:57;;;;;;;8.27;7.67;;;26.50;54.60;;;;;;5011228;28;20197;-51
2021/09/11 02:50:23;;;;;;;9.53;8.60;;;26.50;54.80;;;;;;5010610;28;20685;-47
2021/09/11 02:52:48;;;;;;;9.20;8.43;;;26.40;54.80;;;;;;5010586;28;20598;-46
2021/09/11 02:55:14;;;;;;;10.10;9.20;;;26.50;54.80;;;;;;5006997;28;20191;-46
2021/09/11 02:57:39;;;;;;;8.73;8.03;;;26.40;54.80;;;;;;5009293;28;20246;-47
2021/09/11 03:00:06;;;;;;;9.20;8.40;;;26.50;54.70;;;;;;5010892;28;20221;-47
2021/09/11 03:02:31;;;;;;;9.30;8.57;;;26.50;54.70;;;;;;5011514;28;20257;-46
2021/09/11 03:04:57;;;;;;;9.07;8.37;;;26.50;54.70;;;;;;5011922;28;20838;-48
2021/09/11 03:07:22;;;;;;;9.63;8.77;;;26.50;54.70;;;;;;5012000;28;20626;-48
2021/09/11 03:09:48;;;;;;;9.20;8.50;;;26.50;54.60;;;;;;5011200;28;20190;-48
2021/09/11 03:12:13;;;;;;;9.33;8.70;;;26.50;54.70;;;;;;5009790;28;20574;-47
2021/09/11 03:14:39;;;;;;;9.00;8.10;;;26.50;54.70;;;;;;5007720;28;20225;-47
2021/09/11 03:17:05;;;;;;;10.20;8.57;;;26.50;54.80;;;;;;5006542;28;20186;-48
2021/09/11 03:19:32;;;;;;;9.57;8.57;;;26.50;54.90;;;;;;5005742;28;20194;-45
2021/09/11 03:21:58;;;;;;;9.80;8.77;;;26.50;54.90;;;;;;5008323;28;20556;-47
2021/09/11 03:24:23;;;;;;;9.37;8.57;;;26.60;54.70;;;;;;4998451;28;20440;-47
2021/09/11 03:26:49;;;;;;;9.30;8.40;;;26.60;54.70;;;;;;5010975;28;20205;-48
2021/09/11 03:29:14;;;;;;;8.77;8.07;;;26.50;54.70;;;;;;5011775;28;20194;-46
2021/09/11 03:31:40;;;;;;;9.37;8.67;;;26.50;54.90;;;;;;5005888;28;20221;-48
2021/09/11 03:34:05;;;;;;;9.30;8.50;;;26.50;54.80;;;;;;5002204;28;21009;-47
2021/09/11 03:36:31;;;;;;;9.27;8.47;;;26.50;54.80;;;;;;5001005;28;20254;-46
2021/09/11 03:38:57;;;;;;;9.47;8.67;;;26.50;54.80;;;;;;5002205;28;20205;-47
2021/09/11 03:41:22;;;;;;;9.50;8.53;;;26.50;54.80;;;;;;5007043;28;20569;-49
2021/09/11 03:43:48;;;;;;;8.77;8.07;;;26.50;54.80;;;;;;5008872;28;20201;-50
2021/09/11 03:46:13;;;;;;;9.03;8.30;;;26.50;54.80;;;;;;5005814;28;20205;-49
2021/09/11 03:48:39;;;;;;;9.30;8.50;;;26.40;54.80;;;;;;5010094;28;20178;-46
2021/09/11 03:51:06;;;;;;;8.43;7.73;;;26.40;54.80;;;;;;4996231;28;20202;-45
2021/09/11 03:53:32;;;;;;;9.20;8.40;;;26.50;54.90;;;;;;4998914;28;20224;-50
2021/09/11 03:55:57;;;;;;;8.80;8.10;;;26.50;54.90;;;;;;4997891;28;20537;-46
2021/09/11 03:58:23;;;;;;;10.37;9.47;;;26.50;54.90;;;;;;5010275;28;20233;-46
2021/09/11 04:00:48;;;;;;;8.40;7.80;;;26.40;55.50;;;;;;5007739;28;20187;-49
2021/09/11 04:03:14;;;;;;;9.27;8.47;;;26.40;55.00;;;;;;4998692;28;20269;-50
2021/09/11 04:05:39;;;;;;;9.03;8.20;;;26.40;54.90;;;;;;5010767;28;20198;-50
2021/09/11 04:08:05;;;;;;;8.10;7.50;;;26.40;55.00;;;;;;5002497;28;20592;-47
2021/09/11 04:10:31;;;;;;;8.90;8.03;;;26.40;55.10;;;;;;5002716;28;20797;-48
2021/09/11 04:12:56;;;;;;;8.30;7.60;;;26.40;55.50;;;;;;5007744;28;20218;-47
2021/09/11 04:15:22;;;;;;;8.83;8.13;;;26.50;54.90;;;;;;4997314;28;20301;-49
2021/09/11 04:17:48;;;;;;;7.93;7.33;;;26.50;54.80;;;;;;4997575;28;20570;-46
2021/09/11 04:20:14;;;;;;;8.00;7.30;;;26.50;54.70;;;;;;5006450;28;20198;-49
2021/09/11 04:22:39;;;;;;;8.60;7.90;;;26.50;54.60;;;;;;5007928;28;20215;-46
2021/09/11 04:25:06;;;;;;;8.03;7.33;;;26.50;54.60;;;;;;5010027;28;20778;-49
2021/09/11 04:27:31;;;;;;;8.83;8.07;;;26.50;54.60;;;;;;5010686;28;20293;-47
2021/09/11 04:29:57;;;;;;;7.33;6.73;;;26.50;54.60;;;;;;5009401;28;20511;-47
2021/09/11 04:32:23;;;;;;;7.90;7.30;;;26.50;54.50;;;;;;5004887;28;20680;-47
2021/09/11 04:34:49;;;;;;;9.03;8.33;;;26.40;54.50;;;;;;5007850;28;20225;-49
2021/09/11 04:37:15;;;;;;;9.03;8.13;;;26.50;54.40;;;;;;5010936;28;20190;-48
2021/09/11 04:39:41;;;;;;;8.37;7.67;;;26.50;55.00;;;;;;4995200;28;20211;-46
2021/09/11 04:42:07;;;;;;;8.70;8.10;;;26.50;54.40;;;;;;5001528;28;20445;-47
2021/09/11 04:44:32;;;;;;;8.97;8.07;;;26.50;54.30;;;;;;5009784;28;20212;-45
2021/09/11 04:46:58;;;;;;;7.67;7.07;;;26.50;54.30;;;;;;5008789;28;20566;-47
2021/09/11 04:49:23;;;;;;;9.00;8.20;;;26.50;54.50;;;;;;5007152;28;20264;-45
2021/09/11 04:51:49;;;;;;;8.50;7.77;;;26.50;54.50;;;;;;4993595;28;20256;-45
2021/09/11 04:54:15;;;;;;;8.67;7.97;;;26.40;54.60;;;;;;5010028;28;20233;-45
2021/09/11 04:56:41;;;;;;;8.73;8.03;;;26.50;54.70;;;;;;5010900;28;20202;-45
2021/09/11 04:59:06;;;;;;;8.37;7.63;;;26.50;54.70;;;;;;5005025;28;20264;-48
2021/09/11 05:01:32;;;;;;;8.57;7.93;;;26.40;54.70;;;;;;5010635;28;20838;-49
2021/09/11 05:03:57;;;;;;;9.10;8.40;;;26.40;54.70;;;;;;5008729;28;20218;-47
2021/09/11 05:06:23;;;;;;;9.73;8.83;;;26.40;54.70;;;;;;5003195;28;20550;-46
2021/09/11 05:08:48;;;;;;;10.93;9.77;;;26.40;54.70;;;;;;5010192;28;20677;-46
2021/09/11 05:11:14;;;;;;;10.90;10.00;;;26.50;54.70;;;;;;5010369;28;20202;-46
2021/09/11 05:13:40;;;;;;;11.80;9.33;;;26.60;54.70;;;;;;5010281;28;20226;-48
2021/09/11 05:16:05;;;;;;;10.83;10.03;;;26.50;55.00;;;;;;5003181;28;20642;-48
2021/09/11 05:18:32;;;;;;;11.27;10.27;;;26.50;55.00;;;;;;5005681;28;20236;-46
2021/09/11 05:21:03;;;;;;;10.87;10.07;;;26.50;55.00;;;;;;5007432;28;20198;-50
2021/09/11 05:23:29;;;;;;;11.20;10.20;;;26.50;55.30;;;;;;5008889;28;20441;-46
2021/09/11 05:25:55;;;;;;;12.53;11.33;;;26.40;55.50;;;;;;5013891;28;21078;-47
2021/09/11 05:28:20;;;;;;;10.80;9.90;;;26.30;56.00;;;;;;5010619;28;20194;-47
2021/09/11 05:30:46;;;;;;;10.87;9.97;;;26.20;56.40;;;;;;5011970;28;20194;-48
2021/09/11 05:33:11;;;;;;;11.07;10.17;;;26.10;56.70;;;;;;5009979;28;20312;-45
2021/09/11 05:35:37;;;;;;;11.10;9.80;;;26.00;57.00;;;;;;5013605;28;20209;-46
2021/09/11 05:38:02;;;;;;;10.70;9.70;;;25.90;57.20;;;;;;5001348;28;20197;-46
2021/09/11 05:40:28;;;;;;;11.07;10.17;;;25.80;57.60;;;;;;5000069;28;20186;-50
2021/09/11 05:42:53;;;;;;;10.20;9.30;;;25.70;57.80;;;;;;5008902;28;20229;-46
2021/09/11 05:45:20;;;;;;;9.60;8.80;;;25.60;58.00;;;;;;5013096;28;20280;-45
2021/09/11 05:47:45;;;;;;;9.70;8.90;;;25.60;58.20;;;;;;5007181;28;20201;-46
2021/09/11 05:50:11;;;;;;;9.20;8.50;;;25.50;58.50;;;;;;5009761;28;20432;-47
2021/09/11 05:52:37;;;;;;;11.23;10.23;;;25.40;58.50;;;;;;5012769;28;20205;-47
2021/09/11 05:55:03;;;;;;;9.00;8.30;;;25.40;58.70;;;;;;5004939;28;20241;-46
2021/09/11 05:57:28;;;;;;;10.20;9.30;;;25.40;58.90;;;;;;5004304;28;20190;-46
2021/09/11 05:59:56;;;;;;;9.87;9.07;;;25.30;59.00;;;;;;5007223;28;20680;-45
2021/09/11 06:02:22;;;;;;;8.80;8.10;;;25.30;59.20;;;;;;5007778;28;20252;-47
2021/09/11 06:04:48;;;;;;;10.00;9.20;;;25.20;59.30;;;;;;5012562;28;20441;-47
2021/09/11 06:07:13;;;;;;;9.27;8.57;;;25.20;59.40;;;;;;5011226;28;20488;-46
2021/09/11 06:09:39;;;;;;;8.60;7.80;;;25.20;59.50;;;;;;5002601;28;20206;-45
2021/09/11 06:12:09;;;;;;;8.33;7.73;;;25.20;59.50;;;;;;5006857;28;20194;-46
2021/09/11 06:14:35;;;;;;;9.30;8.60;;;25.20;59.50;;;;;;5012314;28;20276;-48
2021/09/11 06:17:01;;;;;;;9.83;8.93;;;25.20;59.50;;;;;;5012521;28;20441;-51
2021/09/11 06:19:27;;;;;;;10.90;9.90;;;25.10;59.50;;;;;;5009926;28;20198;-45
2021/09/11 06:21:52;;;;;;;8.90;8.10;;;25.00;59.60;;;;;;5010609;28;20573;-45
2021/09/11 06:24:18;;;;;;;9.37;8.67;;;24.90;59.80;;;;;;5000129;28;20193;-45
2021/09/11 06:26:43;;;;;;;8.90;8.20;;;24.90;60.30;;;;;;5011197;28;20273;-48
2021/09/11 06:29:09;;;;;;;9.23;8.40;;;24.70;60.60;;;;;;5003323;28;20206;-45
2021/09/11 06:31:34;;;;;;;10.30;9.40;;;24.70;60.80;;;;;;4999278;28;20578;-46
2021/09/11 06:34:01;;;;;;;9.83;9.03;;;24.70;60.80;;;;;;5003422;28;20222;-45
2021/09/11 06:36:27;;;;;;;9.37;8.47;;;24.70;60.80;;;;;;5003027;28;20194;-46
2021/09/11 06:38:52;;;;;;;9.83;9.10;;;24.60;61.30;;;;;;4995239;28;20975;-46
2021/09/11 06:41:18;;;;;;;8.60;7.90;;;24.20;62.50;;;;;;5011441;28;20273;-45
2021/09/11 06:43:44;;;;;;;8.73;7.93;;;24.20;62.90;;;;;;5011939;28;20205;-46
2021/09/11 06:46:09;;;;;;;7.60;7.00;;;24.10;63.10;;;;;;4998749;28;20198;-46
2021/09/11 06:48:35;;;;;;;7.47;6.63;;;23.90;63.70;;;;;;4998687;28;20282;-45
2021/09/11 06:51:01;;;;;;;7.20;6.60;;;23.80;63.80;;;;;;4993288;28;20894;-45
2021/09/11 06:53:26;;;;;;;7.87;7.07;;;24.00;63.50;;;;;;5002176;28;20264;-46
2021/09/11 06:55:52;;;;;;;6.60;6.00;;;24.00;63.30;;;;;;4997121;28;20203;-46
2021/09/11 06:58:17;;;;;;;7.33;6.63;;;24.10;63.20;;;;;;5000055;28;20332;-45
2021/09/11 07:00:43;;;;;;;8.10;7.40;;;24.10;63.00;;;;;;5007150;28;20198;-46
2021/09/11 07:03:09;;;;;;;9.13;7.63;;;24.10;63.40;;;;;;5012026;28;20221;-46
2021/09/11 07:05:34;;;;;;;10.83;8.67;;;23.80;64.40;;;;;;4998483;28;20191;-46
2021/09/11 07:08:00;;;;;;;8.20;7.50;;;23.80;64.80;;;;;;5001909;28;20298;-45
2021/09/11 07:10:25;;;;;;;8.47;7.77;;;24.00;64.30;;;;;;4992676;28;20198;-48
2021/09/11 07:12:51;;;;;;;8.10;7.50;;;24.10;63.90;;;;;;5006293;28;20247;-45
2021/09/11 07:15:16;;;;;;;8.37;7.67;;;24.30;63.50;;;;;;5012793;28;20276;-46
2021/09/11 07:17:42;;;;;;;9.43;8.53;;;24.30;63.10;;;;;;5011770;28;20198;-45
2021/09/11 07:20:08;;;;;;;9.27;8.47;;;23.70;64.80;;;;;;5011686;28;20190;-48
2021/09/11 07:22:34;;;;;;;9.17;8.37;;;23.80;65.30;;;;;;5010150;28;20186;-45
2021/09/11 07:25:00;;;;;;;8.97;7.93;;;23.90;65.00;;;;;;4998995;28;20488;-51
2021/09/11 07:27:25;;;;;;;8.33;7.60;;;23.90;64.70;;;;;;4994379;28;20674;-49
2021/09/11 07:29:51;;;;;;;7.17;6.57;;;24.00;64.90;;;;;;4992142;28;20199;-50
2021/09/11 07:32:16;;;;;;;8.90;8.00;;;23.80;65.20;;;;;;5000191;28;20268;-49
2021/09/11 07:34:42;;;;;;;8.10;7.40;;;23.80;65.20;;;;;;5011503;28;20228;-47
2021/09/11 07:37:08;;;;;;;8.37;7.47;;;23.80;65.00;;;;;;5011985;28;20584;-47
2021/09/11 07:39:33;;;;;;;8.60;7.80;;;23.40;66.60;;;;;;4998547;28;20194;-48
2021/09/11 07:41:59;;;;;;;7.70;7.07;;;23.30;67.30;;;;;;4996230;28;20662;-47
2021/09/11 07:44:25;;;;;;;7.63;7.03;;;23.10;67.90;;;;;;5011548;28;20236;-47
2021/09/11 07:46:50;;;;;;;7.30;6.70;;;23.20;68.00;;;;;;4992162;28;20221;-47
2021/09/11 07:49:16;;;;;;;8.23;7.53;;;23.50;67.30;;;;;;5002900;28;20281;-45
2021/09/11 07:51:42;;;;;;;7.20;6.57;;;23.60;66.60;;;;;;5010133;28;20558;-45
2021/09/11 07:54:07;;;;;;;7.00;6.40;;;23.60;66.90;;;;;;5000604;28;20226;-45
2021/09/11 07:56:33;;;;;;;7.20;6.50;;;23.60;66.60;;;;;;5001150;28;20198;-46
2021/09/11 07:58:58;;;;;;;7.77;7.17;;;23.90;66.00;;;;;;5009898;28;20343;-45
2021/09/11 08:01:24;;;;;;;6.97;6.40;;;23.70;66.00;;;;;;5009426;28;20562;-46
2021/09/11 08:03:49;;;;;;;6.50;6.00;;;23.80;66.00;;;;;;5001033;28;20289;-45
2021/09/11 08:06:16;;;;;;;6.60;6.00;;;24.10;64.80;;;;;;5008496;28;20201;-45
2021/09/11 08:08:42;;;;;;;7.10;6.43;;;24.10;64.60;;;;;;5010300;28;20198;-45
2021/09/11 08:11:07;;;;;;;6.90;6.20;;;24.00;65.10;;;;;;5003944;28;20552;-45
2021/09/11 08:13:33;;;;;;;7.50;6.90;;;24.30;64.50;;;;;;5005582;28;20712;-45
2021/09/11 08:15:59;;;;;;;6.60;6.10;;;24.10;64.50;;;;;;5000757;28;20203;-47
2021/09/11 08:18:25;;;;;;;7.00;6.50;;;23.90;65.10;;;;;;4997975;28;20425;-45
2021/09/11 08:20:53;;;;;;;5.70;5.20;;;23.90;65.30;;;;;;5010418;28;20295;-46
2021/09/11 08:23:20;;;;;;;6.23;5.83;;;24.00;64.30;;;;;;5010562;28;20198;-45
2021/09/11 08:25:46;;;;;;;5.27;4.90;;;24.20;64.60;;;;;;5011160;28;20434;-45
2021/09/11 08:28:13;;;;;;;5.87;5.37;;;24.30;63.50;;;;;;5007589;28;20433;-45
2021/09/11 08:30:39;;;;;;;6.23;5.73;;;24.10;64.50;;;;;;5010650;28;20512;-45
2021/09/11 08:33:04;;;;;;;5.70;5.30;;;24.00;64.50;;;;;;5008297;28;20874;-45
2021/09/11 08:35:30;;;;;;;6.13;5.63;;;24.30;64.60;;;;;;5012010;28;20206;-46
2021/09/11 08:37:56;;;;;;;5.50;5.10;;;24.50;63.10;;;;;;4997337;28;20646;-46
2021/09/11 08:40:21;;;;;;;5.60;5.20;;;24.90;62.20;;;;;;5009973;28;20194;-50
2021/09/11 08:42:48;;;;;;;6.77;6.13;;;25.20;61.20;;;;;;5004800;28;20372;-45
2021/09/11 08:45:14;;;;;;;6.40;5.90;;;25.00;61.30;;;;;;5006566;28;20604;-46
2021/09/11 08:47:45;;;;;;;4.90;4.50;;;25.30;61.10;;;;;;4997476;28;20814;-46
2021/09/11 08:50:12;;;;;;;8.60;5.53;;;25.70;59.90;;;;;;5005122;28;20530;-45
2021/09/11 08:52:44;;;;;;;5.93;5.43;;;26.00;59.10;;;;;;5008639;28;20433;-46
2021/09/11 08:55:10;;;;;;;5.57;5.07;;;26.20;58.40;;;;;;5009624;28;20887;-45
2021/09/11 08:57:36;;;;;;;5.47;4.97;;;26.30;58.30;;;;;;5007708;28;20507;-49
2021/09/11 09:00:06;;;;;;;4.90;4.40;;;26.30;57.70;;;;;;5009381;28;20441;-45
2021/09/11 09:02:31;;;;;;;4.30;4.00;;;26.50;57.20;;;;;;5011288;28;20503;-45
2021/09/11 09:04:59;;;;;;;5.67;4.47;;;26.60;56.20;;;;;;5013870;28;20945;-45
2021/09/11 09:07:41;;;;;;;4.23;3.93;;;26.70;56.20;;;;;;5010527;28;20301;-47
2021/09/11 09:10:09;;;;;;;4.70;4.30;;;26.90;55.80;;;;;;5004251;28;20439;-47
2021/09/11 09:12:41;;;;;;;3.87;3.57;;;27.10;55.80;;;;;;5006011;28;20440;-47
2021/09/11 09:15:10;;;;;;;4.07;3.77;;;27.40;55.60;;;;;;5005468;28;20844;-46
2021/09/11 09:17:41;;;;;;;5.07;4.43;;;27.50;54.40;;;;;;5009524;28;20449;-45
2021/09/11 09:20:27;;;;;;;4.67;4.30;;;27.50;54.30;;;;;;5003236;28;20441;-45
2021/09/11 09:22:59;;;;;;;4.17;3.80;;;27.40;55.20;;;;;;5008524;28;20464;-45
2021/09/11 09:25:34;;;;;;;4.53;4.20;;;27.60;54.20;;;;;;5003716;28;20576;-46
2021/09/11 09:28:06;;;;;;;4.47;4.07;;;27.40;54.10;;;;;;5003300;28;20497;-45
2021/09/11 09:30:43;;;;;;;5.17;3.90;;;27.50;54.50;;;;;;5009816;28;20449;-45
2021/09/11 09:33:23;;;;;;;4.00;3.70;;;27.80;54.10;;;;;;5012739;28;20453;-45
2021/09/11 09:35:50;;;;;;;4.30;3.80;;;28.00;53.50;;;;;;5013908;28;20444;-45
2021/09/11 09:38:16;;;;;;;4.13;3.83;;;27.90;52.80;;;;;;5011761;28;20424;-45
2021/09/11 09:40:48;;;;;;;4.07;3.77;;;27.90;52.80;;;;;;5013201;28;20440;-45
2021/09/11 09:43:31;;;;;;;3.97;3.77;;;28.00;52.80;;;;;;5012838;28;20494;-45
2021/09/11 09:46:11;;;;;;;3.90;3.60;;;28.00;52.70;;;;;;5012553;28;20437;-45
2021/09/11 09:48:38;;;;;;;4.43;4.13;;;28.10;52.40;;;;;;5013082;28;20491;-45
2021/09/11 09:51:14;;;;;;;3.77;3.47;;;28.10;52.20;;;;;;5013570;28;20480;-46
2021/09/11 09:53:42;;;;;;;3.97;3.57;;;27.90;52.30;;;;;;5004237;28;20497;-46
2021/09/11 09:56:08;;;;;;;4.33;4.03;;;28.00;52.30;;;;;;5007360;28;20436;-46
2021/09/11 09:58:35;;;;;;;3.77;3.47;;;28.10;52.50;;;;;;5011482;28;20496;-45
2021/09/11 10:01:02;;;;;;;4.10;3.70;;;28.30;52.40;;;;;;5008680;28;20810;-45
2021/09/11 10:03:27;;;;;;;4.00;3.30;;;28.40;52.00;;;;;;5011647;28;20500;-47
2021/09/11 10:06:01;;;;;;;6.60;4.10;;;28.30;51.60;;;;;;5007072;28;20854;-46
2021/09/11 10:08:28;;;;;;;3.43;3.23;;;28.10;51.80;;;;;;5011947;28;20198;-46
2021/09/11 10:10:55;;;;;;;3.97;3.63;;;28.10;52.00;;;;;;5008919;28;20453;-45
2021/09/11 10:13:23;;;;;;;4.03;3.63;;;28.10;51.40;;;;;;4993492;28;20513;-45
2021/09/11 10:16:04;;;;;;;3.70;3.50;;;28.30;51.40;;;;;;4996439;28;20449;-45
2021/09/11 10:18:29;;;;;;;4.17;3.70;;;28.50;51.20;;;;;;5004456;28;20453;-47
2021/09/11 10:21:14;;;;;;;3.63;3.33;;;28.80;50.70;;;;;;5005910;28;20868;-46
2021/09/11 10:23:57;;;;;;;4.13;3.83;;;28.90;50.00;;;;;;5008344;28;20193;-46
2021/09/11 10:26:58;;;;;;;3.57;3.37;;;29.00;50.10;;;;;;5005976;28;20571;-45
2021/09/11 10:29:33;;;;;;;4.63;4.23;;;29.10;50.40;;;;;;4999595;28;20452;-47
2021/09/11 10:32:11;;;;;;;4.90;3.33;;;29.10;49.10;;;;;;5003150;28;20498;-46
2021/09/11 10:35:02;;;;;;;5.03;4.50;;;29.10;49.50;;;;;;5008270;28;20524;-47
2021/09/11 10:37:38;;;;;;;4.57;4.27;;;29.30;49.80;;;;;;5006167;28;20452;-49
2021/09/11 10:40:22;;;;;;;6.03;4.33;;;28.80;50.10;;;;;;5001248;28;20461;-45
2021/09/11 10:43:08;;;;;;;4.27;3.87;;;28.70;51.00;;;;;;4993095;28;21008;-51
2021/09/11 10:45:59;;;;;;;4.57;3.60;;;28.80;51.00;;;;;;5010255;28;20503;-45
2021/09/11 10:48:44;;;;;;;3.93;3.57;;;28.90;50.50;;;;;;5005737;28;20854;-45
2021/09/11 10:51:17;;;;;;;4.07;3.77;;;29.10;49.80;;;;;;5006664;28;20433;-45
2021/09/11 10:54:07;;;;;;;3.77;3.40;;;29.40;50.00;;;;;;4999717;28;20626;-48
2021/09/11 10:56:43;;;;;;;4.70;3.50;;;29.80;48.20;;;;;;4999389;28;21015;-50
2021/09/11 10:59:21;;;;;;;3.47;3.27;;;29.80;48.20;;;;;;4999712;28;20480;-45
2021/09/11 11:02:04;;;;;;;3.57;3.33;;;29.90;48.40;;;;;;4998277;28;20583;-46
2021/09/11 11:04:32;;;;;;;3.60;3.40;;;30.00;47.90;;;;;;4999045;28;20461;-47
2021/09/11 11:07:09;;;;;;;4.90;3.30;;;30.10;48.20;;;;;;5000415;28;20495;-48
2021/09/11 11:09:41;;;;;;;3.50;3.20;;;30.40;47.80;;;;;;5000869;28;20429;-48
2021/09/11 11:12:09;;;;;;;3.07;2.80;;;30.60;46.60;;;;;;5001195;28;20441;-47
2021/09/11 11:14:45;;;;;;;3.27;2.97;;;30.70;46.80;;;;;;5009599;28;20534;-47
2021/09/11 11:17:11;;;;;;;3.67;2.87;;;30.80;46.60;;;;;;5004734;28;20437;-46
2021/09/11 11:19:42;;;;;;;2.90;2.63;;;31.00;46.00;;;;;;4993978;28;20430;-49
2021/09/11 11:22:10;;;;;;;3.90;2.90;;;31.10;44.80;;;;;;4999515;28;20520;-48
2021/09/11 11:24:38;;;;;;;3.30;3.00;;;31.10;45.70;;;;;;4998707;28;20535;-45
2021/09/11 11:27:09;;;;;;;3.23;3.03;;;31.30;45.60;;;;;;5007871;28;20452;-48
2021/09/11 11:29:35;;;;;;;3.17;2.60;;;31.20;45.50;;;;;;4997481;28;20445;-49
2021/09/11 11:32:03;;;;;;;3.23;3.03;;;31.40;45.20;;;;;;5007004;28;20861;-47
2021/09/11 11:34:29;;;;;;;3.10;2.80;;;31.30;45.40;;;;;;5004196;28;20492;-47
2021/09/11 11:37:02;;;;;;;3.57;3.27;;;31.30;45.20;;;;;;5002512;28;20433;-48
2021/09/11 11:39:31;;;;;;;3.20;3.00;;;31.20;45.30;;;;;;5006441;28;20433;-46
2021/09/11 11:42:00;;;;;;;3.20;3.00;;;31.10;45.40;;;;;;4999271;28;20431;-49
2021/09/11 11:44:28;;;;;;;3.60;3.20;;;31.10;45.60;;;;;;5002279;28;20873;-45
2021/09/11 11:47:17;;;;;;;3.30;3.10;;;31.10;45.60;;;;;;5002784;28;20434;-47
2021/09/11 11:49:43;;;;;;;3.40;3.10;;;31.00;45.80;;;;;;5014421;28;20448;-49
2021/09/11 11:52:11;;;;;;;6.47;2.97;;;31.00;45.90;;;;;;4998816;28;20769;-46
2021/09/11 11:54:38;;;;;;;3.13;2.90;;;30.90;45.60;;;;;;4999528;28;20268;-49
2021/09/11 11:57:19;;;;;;;7.90;3.33;;;30.90;45.70;;;;;;5001700;28;20941;-46
2021/09/11 11:59:45;;;;;;;3.33;3.03;;;30.90;45.30;;;;;;4997532;28;20466;-48
2021/09/11 12:02:24;;;;;;;3.73;3.43;;;30.80;45.60;;;;;;5002068;28;20425;-47
2021/09/11 12:04:52;;;;;;;4.93;4.53;;;30.70;45.10;;;;;;4999004;28;20229;-48
2021/09/11 12:07:32;;;;;;;4.30;4.00;;;30.60;45.30;;;;;;5006935;28;20483;-49
2021/09/11 12:10:02;;;;;;;18.13;13.50;;;30.30;46.40;;;;;;4996587;28;20833;-47
2021/09/11 12:12:49;;;;;;;9.33;6.13;;;30.30;48.40;;;;;;4998983;28;20425;-50
2021/09/11 12:15:21;;;;;;;4.07;3.77;;;30.10;49.30;;;;;;4986189;28;20566;-47
2021/09/11 12:18:14;;;;;;;4.53;3.80;;;29.40;51.60;;;;;;5001551;28;20454;-47
2021/09/11 12:20:47;;;;;;;3.43;3.13;;;28.80;53.50;;;;;;5002592;28;20812;-48
2021/09/11 12:23:16;;;;;;;4.00;3.43;;;28.70;53.80;;;;;;4999654;28;20442;-50
2021/09/11 12:25:58;;;;;;;3.73;3.43;;;28.70;54.40;;;;;;5003234;28;20454;-47
2021/09/11 12:28:42;;;;;;;4.10;3.70;;;28.80;54.90;;;;;;5003891;28;20811;-45
2021/09/11 12:31:21;;;;;;;3.97;3.67;;;28.90;54.90;;;;;;5008488;28;20495;-49
2021/09/11 12:33:54;;;;;;;4.90;4.33;;;28.90;55.60;;;;;;5006072;28;21228;-49
2021/09/11 12:36:20;;;;;;;4.97;3.73;;;29.00;56.10;;;;;;5006592;28;20437;-47
2021/09/11 12:38:46;;;;;;;4.30;3.90;;;29.10;56.20;;;;;;5002023;28;20451;-47
2021/09/11 12:41:11;;;;;;;5.00;3.33;;;29.10;55.10;;;;;;5008808;28;20273;-46
2021/09/11 12:43:37;;;;;;;4.30;3.67;;;29.20;54.40;;;;;;5003635;28;20202;-46
2021/09/11 12:46:03;;;;;;;4.33;3.50;;;29.10;54.70;;;;;;5005811;28;20690;-48
2021/09/11 12:48:28;;;;;;;4.30;3.90;;;28.90;53.80;;;;;;5005925;28;20190;-46
2021/09/11 12:50:54;;;;;;;4.60;3.80;;;28.70;55.10;;;;;;5004209;28;20194;-45